Terminal Aerodrome Forecast
Issued by NWS

Home | Current Version | Previous Version | Text Only | Print | Product List | Glossary On
Versions: 1 2 3 4 5 6 7 8 9 10 11 12
000
FTUS46 KSTO 291123
TAFRDD
TAF
KRDD 291123Z 2912/3012 34006KT P6SM SKC
     FM292300 19006KT P6SM SKC
     FM300500 VRB03KT P6SM SKC=

USA.gov is the U.S. government's official web portal to all federal, state and local government web resources and services.